K2DP

Dare County Gunnery Range Airport

North Carolina, USA
METAR K2DP 191656Z AUTO 25010KT 10SM BKN019 28/24 A2996 RMK AO2 LTG DSNT S SLPNO T02830235 $
Observed Flight Rules
Aug-19 @ 16:56 UTC (17 minutes ago) Marginal Visual Flight Rules
Wind Visibility Clouds
250° at 10 knots 10 miles
  • Broken at 1,900' AGL
Temperatures Readings
Current 28°C / 82°F
Dewpoint 24°C / 75°F
Humidity 79%
Altimeter 29.96" Hg
Pressure 1015 hPa
Elevation 3
METAR K2DP 191656Z AUTO 25010KT 10SM BKN019 28/24 A2996 RMK AO2 LTG DSNT S SLPNO T02830235 $
Observed Flight Rules
Aug-19 @ 16:56 UTC
(17 minutes ago)
MVFR
Wind Visibility
250° at 10 knots 10 miles
Clouds
  • Broken at 1,900' AGL
Temperature Dewpoint
28°C / 82°F 24°C / 75°F
Humidity Altimeter Pressure
79% 29.96" Hg 1015 hPa